Terminal Aerodrome Forecast
Issued by NWS

Home | Current Version | Previous Version | Text Only | Print | Product List | Glossary On
Versions: 1 2 3 4 5 6 7 8 9 10 11 12 13
000
FTUS45 KTWC 241121
TAFOLS
TAF
KOLS 241121Z 2412/2512 VRB03KT P6SM SKC
     FM241500 18014G22KT P6SM FEW250
     FM242000 22022G30KT P6SM BKN250
     FM250300 19014G20KT P6SM OVC250=

USA.gov is the U.S. government's official web portal to all federal, state and local government web resources and services.